Time;durP1;ratioP1;P1;durP2;ratioP2;P2;SDS_P1;SDS_P2;PMS_P1;PMS_P2;Temp;Humidity;BMP_temperature;BMP_pressure;BME280_temperature;BME280_humidity;BME280_pressure;Samples;Min_cycle;Max_cycle;Signal;HPM_P1;HPM_P2
2023/10/11 03:33:08;;;;;;;6.13;4.00;;;10.20;99.90;;;;;;4977440;28;20236;-66
2023/10/11 03:35:38;;;;;;;6.57;4.57;;;10.20;99.90;;;;;;4978182;28;20204;-66
2023/10/11 03:38:16;;;;;;;10.88;4.43;;;10.20;99.90;;;;;;4980522;28;20210;-66
2023/10/11 03:40:55;;;;;;;5.68;3.92;;;10.20;99.90;;;;;;4978922;28;20661;-66
2023/10/11 03:43:26;;;;;;;5.25;3.47;;;10.20;99.90;;;;;;4995030;28;20203;-66
2023/10/11 03:45:58;;;;;;;8.57;4.88;;;10.20;99.90;;;;;;4993755;28;20305;-65
2023/10/11 03:48:28;;;;;;;8.75;3.53;;;10.20;99.90;;;;;;4983176;28;20204;-66
2023/10/11 03:50:55;;;;;;;6.70;3.80;;;10.20;99.90;;;;;;4994866;28;20219;-64
2023/10/11 03:53:22;;;;;;;7.53;4.65;;;10.20;99.90;;;;;;4994936;28;20211;-64
2023/10/11 03:55:50;;;;;;;7.00;4.82;;;10.10;99.90;;;;;;4988202;28;20204;-64
2023/10/11 03:58:33;;;;;;;5.25;3.95;;;10.20;99.90;;;;;;4988823;28;20218;-65
2023/10/11 04:01:07;;;;;;;4.75;4.20;;;10.20;99.90;;;;;;4994128;28;20868;-65
2023/10/11 04:03:35;;;;;;;7.50;4.07;;;10.20;99.90;;;;;;4989287;28;20213;-67
2023/10/11 04:06:13;;;;;;;4.20;3.17;;;10.20;99.90;;;;;;4985154;28;20211;-64
2023/10/11 04:08:41;;;;;;;7.63;4.97;;;10.20;99.90;;;;;;4984620;28;20226;-67
2023/10/11 04:11:14;;;;;;;10.63;4.72;;;10.20;99.90;;;;;;4984638;28;20277;-64
2023/10/11 04:13:44;;;;;;;5.82;3.90;;;10.10;99.90;;;;;;4985111;28;20226;-65
2023/10/11 04:16:11;;;;;;;5.10;4.00;;;10.10;99.90;;;;;;4986341;28;20219;-65
2023/10/11 04:18:40;;;;;;;8.20;4.40;;;10.10;99.90;;;;;;4988274;28;20668;-65
2023/10/11 04:21:26;;;;;;;6.50;4.13;;;10.10;99.90;;;;;;4993058;28;20223;-65
2023/10/11 04:23:55;;;;;;;7.28;4.22;;;10.10;99.90;;;;;;4986098;28;20258;-65
2023/10/11 04:26:33;;;;;;;5.05;3.60;;;10.10;99.90;;;;;;4992758;28;20647;-64
2023/10/11 04:29:06;;;;;;;7.25;4.50;;;10.10;99.90;;;;;;4994106;28;20671;-65
2023/10/11 04:31:53;;;;;;;6.32;3.97;;;10.10;99.90;;;;;;4993776;28;20227;-65
2023/10/11 04:34:31;;;;;;;6.80;4.55;;;10.10;99.90;;;;;;4985015;28;20231;-64
2023/10/11 04:36:59;;;;;;;6.00;3.47;;;10.10;99.90;;;;;;4991950;28;20635;-64
2023/10/11 04:39:33;;;;;;;6.80;4.35;;;10.10;99.90;;;;;;4988237;28;20205;-65
2023/10/11 04:42:01;;;;;;;4.63;3.50;;;10.10;99.90;;;;;;4993718;28;20285;-64
2023/10/11 04:44:32;;;;;;;9.27;4.47;;;10.10;99.90;;;;;;4984753;28;20228;-64
2023/10/11 04:47:00;;;;;;;4.95;3.90;;;10.00;99.90;;;;;;4986514;28;20669;-66
2023/10/11 04:49:30;;;;;;;4.22;3.63;;;10.00;99.90;;;;;;4990273;28;20227;-66
2023/10/11 04:51:57;;;;;;;6.72;3.78;;;10.00;99.90;;;;;;4991827;28;20229;-66
2023/10/11 04:54:35;;;;;;;7.95;4.30;;;10.00;99.90;;;;;;4993361;28;20630;-66
2023/10/11 04:57:07;;;;;;;6.63;4.18;;;10.00;99.90;;;;;;4982298;28;20204;-66
2023/10/11 04:59:36;;;;;;;4.90;4.18;;;10.00;99.90;;;;;;4993326;28;20207;-65
2023/10/11 05:02:09;;;;;;;5.53;3.83;;;10.00;99.90;;;;;;4993315;28;20606;-66
2023/10/11 05:04:44;;;;;;;6.88;3.58;;;10.00;99.90;;;;;;4988227;28;20294;-66
2023/10/11 05:07:13;;;;;;;6.75;3.83;;;10.00;99.90;;;;;;4984861;28;20213;-66
2023/10/11 05:09:40;;;;;;;6.18;3.80;;;10.00;99.90;;;;;;4993043;28;20233;-65
2023/10/11 05:12:09;;;;;;;9.18;4.47;;;9.90;99.90;;;;;;4992869;28;20314;-66
2023/10/11 05:14:41;;;;;;;5.65;4.03;;;9.90;99.90;;;;;;4987929;28;20210;-66
2023/10/11 05:19:57;;;;;;;6.10;3.72;;;9.90;99.90;;;;;;4986003;28;20206;-70
2023/10/11 05:22:29;;;;;;;5.93;4.20;;;9.90;99.90;;;;;;4985583;28;20309;-68
2023/10/11 05:27:47;;;;;;;6.22;4.50;;;9.90;99.90;;;;;;4988290;28;20234;-70
2023/10/11 05:30:16;;;;;;;5.25;3.60;;;9.80;99.90;;;;;;4980623;28;20671;-70
2023/10/11 05:32:50;;;;;;;9.25;4.60;;;9.80;99.90;;;;;;4992410;28;20213;-71
2023/10/11 05:35:43;;;;;;;4.95;4.07;;;9.80;99.90;;;;;;4990555;28;20205;-71
2023/10/11 05:51:52;;;;;;;8.57;3.63;;;9.90;99.90;;;;;;4989880;28;20261;-69
2023/10/11 05:54:20;;;;;;;7.90;4.53;;;9.80;99.90;;;;;;4987892;28;20207;-67
2023/10/11 05:56:47;;;;;;;5.45;3.80;;;9.90;99.90;;;;;;4991870;28;20207;-70
2023/10/11 05:59:16;;;;;;;4.78;3.47;;;9.90;99.90;;;;;;4992338;28;20253;-71
2023/10/11 06:01:44;;;;;;;4.80;3.90;;;9.90;99.90;;;;;;4987618;28;20222;-70
2023/10/11 06:04:14;;;;;;;5.75;3.80;;;10.00;99.90;;;;;;4984636;28;20215;-69
2023/10/11 06:06:42;;;;;;;5.60;4.07;;;10.00;99.90;;;;;;4987736;28;20207;-70
2023/10/11 06:09:16;;;;;;;8.75;3.90;;;10.10;99.90;;;;;;4983844;28;20203;-70
2023/10/11 06:11:48;;;;;;;6.22;4.13;;;10.20;99.90;;;;;;4991800;28;20249;-70
2023/10/11 06:14:16;;;;;;;9.25;4.25;;;10.30;99.90;;;;;;4991910;28;20215;-66
2023/10/11 06:16:49;;;;;;;9.75;4.53;;;10.40;99.90;;;;;;4991673;28;20254;-66
2023/10/11 06:19:16;;;;;;;7.50;4.00;;;10.40;99.90;;;;;;4983028;28;20286;-72
2023/10/11 06:21:56;;;;;;;4.95;3.88;;;10.50;99.90;;;;;;4991565;28;20242;-68
2023/10/11 06:24:25;;;;;;;6.80;4.40;;;10.60;99.90;;;;;;4979202;28;20218;-67
2023/10/11 06:26:53;;;;;;;6.82;3.45;;;10.60;99.90;;;;;;4989254;28;20210;-68
2023/10/11 06:29:23;;;;;;;5.85;3.40;;;10.60;99.90;;;;;;4989400;28;20210;-67
2023/10/11 06:31:53;;;;;;;4.55;3.97;;;10.70;99.90;;;;;;4991401;28;20227;-66
2023/10/11 06:34:26;;;;;;;6.93;4.10;;;10.80;99.90;;;;;;4987286;28;20245;-67
2023/10/11 06:36:55;;;;;;;4.32;3.92;;;10.80;99.90;;;;;;4987629;28;20212;-67
2023/10/11 06:42:21;;;;;;;6.40;4.45;;;11.10;99.90;;;;;;4984383;28;20246;-67
2023/10/11 06:44:49;;;;;;;6.75;3.40;;;11.30;99.90;;;;;;4987463;28;20207;-70
2023/10/11 06:47:18;;;;;;;5.57;3.78;;;11.50;99.90;;;;;;4991314;28;20203;-70
2023/10/11 06:49:53;;;;;;;6.55;3.17;;;11.60;99.90;;;;;;4987867;28;20635;-69
2023/10/11 06:52:25;;;;;;;8.30;3.22;;;11.90;99.90;;;;;;4987564;28;20691;-70
2023/10/11 06:55:14;;;;;;;4.97;3.50;;;12.10;99.90;;;;;;4987866;28;20212;-70
2023/10/11 06:57:41;;;;;;;4.53;3.28;;;12.30;99.90;;;;;;4984272;28;20728;-69
2023/10/11 07:00:21;;;;;;;6.53;3.38;;;12.60;99.90;;;;;;4991271;28;20269;-70
2023/10/11 07:02:48;;;;;;;3.80;3.00;;;12.80;99.90;;;;;;4987141;28;20200;-70
2023/10/11 07:05:19;;;;;;;4.40;3.20;;;13.10;99.90;;;;;;4991223;28;20464;-70
2023/10/11 07:07:48;;;;;;;3.93;3.03;;;13.30;99.90;;;;;;4984268;28;20469;-70
2023/10/11 07:10:29;;;;;;;11.53;3.83;;;13.60;99.90;;;;;;4991001;28;20474;-70
2023/10/11 07:13:05;;;;;;;4.53;2.90;;;13.90;99.90;;;;;;4988111;28;20579;-68
2023/10/11 07:15:40;;;;;;;6.60;3.93;;;14.10;99.90;;;;;;4988587;28;20522;-68
2023/10/11 07:18:10;;;;;;;5.47;3.60;;;14.40;99.90;;;;;;4988032;28;20549;-68
2023/10/11 07:21:06;;;;;;;9.03;4.03;;;14.60;99.90;;;;;;4991028;28;20554;-70
2023/10/11 07:23:46;;;;;;;6.70;3.40;;;14.80;99.90;;;;;;4984095;28;20465;-70
2023/10/11 07:26:23;;;;;;;4.50;3.30;;;15.00;99.90;;;;;;4983460;28;20836;-71
2023/10/11 07:28:50;;;;;;;6.00;3.90;;;15.20;99.90;;;;;;4986406;28;20466;-71
2023/10/11 07:31:18;;;;;;;4.10;2.73;;;15.50;99.90;;;;;;4990928;28;20501;-70
2023/10/11 07:33:49;;;;;;;5.57;3.30;;;15.60;99.90;;;;;;4988026;28;20463;-70
2023/10/11 07:36:18;;;;;;;7.80;3.60;;;15.80;99.90;;;;;;4990902;28;20473;-69
2023/10/11 07:38:54;;;;;;;7.47;3.23;;;16.10;99.90;;;;;;4990483;28;20472;-70
2023/10/11 07:41:25;;;;;;;4.17;3.23;;;16.30;99.90;;;;;;4992923;28;20485;-71
2023/10/11 07:43:52;;;;;;;4.73;3.07;;;16.60;99.90;;;;;;4988742;28;20466;-67
2023/10/11 07:46:19;;;;;;;4.90;3.07;;;16.90;99.90;;;;;;4990921;28;20558;-67
2023/10/11 07:48:48;;;;;;;5.67;3.00;;;17.10;99.90;;;;;;4990713;28;21110;-70
2023/10/11 07:51:15;;;;;;;3.93;3.10;;;17.40;99.90;;;;;;4990869;28;20585;-66
2023/10/11 07:53:44;;;;;;;5.00;3.40;;;17.70;99.90;;;;;;4990692;28;20467;-64
2023/10/11 07:56:15;;;;;;;3.43;2.97;;;17.90;99.90;;;;;;4983046;28;20459;-68
2023/10/11 07:58:46;;;;;;;8.77;3.30;;;18.20;99.90;;;;;;4988214;28;20542;-69
2023/10/11 08:01:25;;;;;;;9.50;5.30;;;18.40;99.90;;;;;;4984077;28;20490;-69
2023/10/11 08:03:52;;;;;;;3.50;2.27;;;18.60;99.90;;;;;;4992059;28;20488;-70
2023/10/11 08:06:24;;;;;;;5.93;3.17;;;18.80;99.90;;;;;;4993971;28;20531;-70
2023/10/11 08:08:51;;;;;;;5.57;3.73;;;19.10;99.90;;;;;;4991633;28;20460;-70
2023/10/11 08:11:20;;;;;;;4.63;3.80;;;19.30;99.90;;;;;;4993888;28;20494;-69
2023/10/11 08:13:50;;;;;;;4.60;2.90;;;19.50;99.90;;;;;;4991575;28;20476;-71
2023/10/11 08:16:19;;;;;;;5.13;2.60;;;19.80;99.90;;;;;;4991478;28;20476;-71
2023/10/11 08:18:48;;;;;;;4.73;2.50;;;20.10;99.90;;;;;;4987486;28;20962;-69
2023/10/11 08:21:16;;;;;;;6.60;2.70;;;20.50;99.90;;;;;;4993868;28;20485;-69
2023/10/11 08:23:44;;;;;;;3.83;2.40;;;20.80;99.90;;;;;;4992935;28;20472;-70
2023/10/11 08:26:16;;;;;;;7.03;3.53;;;21.10;99.90;;;;;;4985023;28;20465;-68
2023/10/11 08:28:48;;;;;;;3.87;2.60;;;21.30;99.90;;;;;;4993412;28;20516;-68
2023/10/11 08:31:32;;;;;;;3.60;2.90;;;21.50;99.90;;;;;;4986429;28;20536;-67
2023/10/11 08:34:03;;;;;;;3.10;2.53;;;21.50;99.90;;;;;;4992624;28;20470;-67
2023/10/11 08:36:33;;;;;;;3.97;2.70;;;21.60;99.90;;;;;;4993083;28;20892;-67
2023/10/11 08:39:05;;;;;;;4.97;3.20;;;21.60;99.90;;;;;;4993217;28;20549;-67
2023/10/11 08:41:33;;;;;;;7.83;3.10;;;21.60;99.90;;;;;;4993279;28;20482;-66
2023/10/11 08:44:08;;;;;;;5.83;2.77;;;21.60;99.90;;;;;;4993274;28;20462;-71
2023/10/11 08:46:39;;;;;;;6.03;3.00;;;21.70;99.90;;;;;;4990707;28;20470;-69
2023/10/11 08:49:07;;;;;;;4.30;3.27;;;21.90;99.90;;;;;;4991711;28;20963;-70
2023/10/11 08:51:37;;;;;;;5.70;2.93;;;22.00;99.90;;;;;;4993024;28;20501;-70
2023/10/11 08:54:11;;;;;;;3.93;2.97;;;22.10;99.90;;;;;;4993053;28;20537;-70
2023/10/11 08:56:38;;;;;;;3.67;2.20;;;22.20;99.90;;;;;;4992268;28;20462;-69
2023/10/11 08:59:06;;;;;;;5.70;2.73;;;22.30;99.90;;;;;;4993115;28;20553;-68
2023/10/11 09:01:36;;;;;;;4.87;2.70;;;22.40;99.90;;;;;;4992636;28;20491;-68
2023/10/11 09:04:11;;;;;;;10.03;2.87;;;22.50;99.90;;;;;;4993506;28;20505;-67
2023/10/11 09:06:41;;;;;;;4.60;2.80;;;22.60;99.90;;;;;;4992560;28;20556;-67
2023/10/11 09:09:14;;;;;;;4.60;2.63;;;22.70;99.90;;;;;;4984811;28;20450;-69
2023/10/11 09:11:53;;;;;;;6.40;3.50;;;22.90;99.90;;;;;;4989530;28;20610;-68
2023/10/11 09:14:23;;;;;;;3.70;2.60;;;23.00;99.90;;;;;;4986897;28;20457;-66
2023/10/11 09:16:51;;;;;;;7.10;3.00;;;23.20;99.90;;;;;;4992362;28;20493;-66
2023/10/11 09:19:20;;;;;;;4.60;3.40;;;23.40;99.90;;;;;;4993127;28;20462;-66
2023/10/11 09:22:02;;;;;;;7.30;2.70;;;23.50;99.90;;;;;;4992459;28;20825;-70
2023/10/11 09:24:37;;;;;;;8.70;2.60;;;23.60;99.90;;;;;;4992954;28;21001;-69
2023/10/11 09:27:19;;;;;;;3.43;2.90;;;23.70;99.90;;;;;;4992203;28;20974;-70
2023/10/11 09:29:48;;;;;;;3.17;2.77;;;23.90;99.90;;;;;;4992505;28;20458;-69
2023/10/11 09:32:19;;;;;;;6.00;2.63;;;24.10;99.90;;;;;;4992512;28;20490;-71
2023/10/11 09:34:47;;;;;;;3.67;2.23;;;24.20;99.90;;;;;;4990868;28;20843;-70
2023/10/11 09:37:14;;;;;;;5.00;3.10;;;24.20;99.90;;;;;;4992396;28;20473;-69
2023/10/11 09:39:42;;;;;;;5.67;2.60;;;24.30;99.90;;;;;;4992264;28;20849;-69
2023/10/11 09:42:11;;;;;;;3.20;2.40;;;24.40;99.90;;;;;;4991325;28;20474;-69
2023/10/11 09:44:39;;;;;;;6.50;3.17;;;24.50;99.90;;;;;;4990889;28;20466;-68
2023/10/11 09:47:08;;;;;;;6.60;3.30;;;24.70;99.90;;;;;;4992103;28;20462;-69
2023/10/11 09:49:41;;;;;;;8.10;3.20;;;24.90;99.90;;;;;;4992429;28;20462;-69
2023/10/11 09:52:10;;;;;;;8.13;2.87;;;24.90;99.90;;;;;;4982732;28;20521;-72
2023/10/11 09:54:39;;;;;;;4.83;2.40;;;25.00;99.90;;;;;;4991935;28;20466;-69
2023/10/11 09:57:15;;;;;;;4.40;2.77;;;25.00;99.90;;;;;;4990164;28;20458;-69
2023/10/11 09:59:48;;;;;;;4.40;3.03;;;25.20;99.90;;;;;;4986575;28;20466;-68
2023/10/11 10:02:22;;;;;;;3.40;2.47;;;25.30;99.90;;;;;;4985217;28;20485;-69
2023/10/11 10:04:57;;;;;;;5.03;2.83;;;25.30;99.90;;;;;;4990218;28;20468;-69
2023/10/11 10:07:32;;;;;;;5.37;3.00;;;25.30;99.90;;;;;;4991890;28;20458;-70
2023/10/11 10:10:01;;;;;;;3.80;2.77;;;25.40;99.90;;;;;;4991957;28;20836;-69
2023/10/11 10:12:33;;;;;;;4.60;2.60;;;25.50;99.90;;;;;;4991978;28;20495;-70
2023/10/11 10:15:07;;;;;;;4.00;2.60;;;25.50;99.90;;;;;;4990945;28;20473;-70
2023/10/11 10:17:34;;;;;;;2.53;2.30;;;25.60;99.90;;;;;;4991723;28;20974;-69
2023/10/11 10:20:38;;;;;;;3.73;2.90;;;25.70;99.90;;;;;;4990562;28;20477;-69
2023/10/11 10:23:26;;;;;;;5.00;2.90;;;25.80;99.90;;;;;;4990022;28;20556;-69
2023/10/11 10:26:26;;;;;;;4.27;2.90;;;26.00;99.90;;;;;;4990246;28;20869;-69
2023/10/11 10:28:57;;;;;;;6.63;3.07;;;26.10;99.90;;;;;;4991421;28;20466;-69
2023/10/11 10:31:25;;;;;;;4.33;2.73;;;26.20;99.90;;;;;;4991676;28;20490;-69
2023/10/11 10:34:24;;;;;;;5.40;3.13;;;26.40;99.90;;;;;;4991243;28;20490;-69
2023/10/11 10:36:52;;;;;;;4.03;2.97;;;26.50;99.90;;;;;;4991313;28;20489;-69
2023/10/11 10:42:13;;;;;;;4.83;3.13;;;26.80;99.90;;;;;;4991106;28;20986;-71
2023/10/11 10:44:54;;;;;;;3.97;2.73;;;26.80;99.90;;;;;;4991266;28;20450;-70
2023/10/11 10:47:25;;;;;;;2.90;2.60;;;27.00;99.90;;;;;;4984851;28;20512;-69
2023/10/11 10:49:54;;;;;;;2.60;2.37;;;27.10;99.90;;;;;;4991179;28;20493;-69
2023/10/11 10:52:21;;;;;;;3.90;2.40;;;27.20;99.90;;;;;;4991385;28;20548;-69
2023/10/11 10:55:01;;;;;;;4.63;3.20;;;27.30;99.90;;;;;;4991255;28;20546;-65
2023/10/11 10:57:31;;;;;;;3.97;2.63;;;27.30;98.90;;;;;;4991040;28;20553;-69
2023/10/11 10:59:59;;;;;;;3.67;2.87;;;27.40;99.90;;;;;;4991141;28;20574;-67
2023/10/11 11:02:25;;;;;;;4.77;3.43;;;27.40;99.40;;;;;;4991173;28;20486;-67
2023/10/11 11:04:52;;;;;;;3.07;2.67;;;27.50;99.90;;;;;;4990559;28;20857;-66
2023/10/11 11:07:24;;;;;;;5.53;3.30;;;27.60;99.90;;;;;;4991068;28;20204;-67
2023/10/11 11:09:54;;;;;;;2.90;2.50;;;27.70;99.80;;;;;;4990939;28;20979;-69
2023/10/11 11:12:28;;;;;;;2.80;2.27;;;27.80;99.20;;;;;;4991252;28;20588;-65
2023/10/11 11:14:56;;;;;;;5.20;3.00;;;27.90;99.00;;;;;;4990736;28;20473;-67
2023/10/11 11:17:23;;;;;;;6.10;3.03;;;27.90;99.00;;;;;;4990869;28;20462;-66
2023/10/11 11:20:27;;;;;;;5.30;2.80;;;27.90;97.40;;;;;;4991051;28;20462;-66
2023/10/11 11:22:53;;;;;;;3.93;2.53;;;27.90;99.30;;;;;;4990858;28;20462;-66
2023/10/11 11:25:27;;;;;;;4.93;2.40;;;27.90;98.90;;;;;;4991154;28;20846;-66
2023/10/11 11:28:15;;;;;;;5.70;3.50;;;28.10;98.90;;;;;;4974991;28;20475;-67
2023/10/11 11:30:43;;;;;;;2.80;2.50;;;28.10;98.60;;;;;;4983364;28;20479;-67
2023/10/11 11:33:28;;;;;;;6.27;2.97;;;28.10;98.90;;;;;;4983639;28;20574;-65
2023/10/11 11:35:55;;;;;;;4.83;3.03;;;28.10;98.30;;;;;;4990955;28;20575;-69
2023/10/11 11:38:22;;;;;;;3.57;2.67;;;28.20;97.90;;;;;;4983913;28;20473;-70
2023/10/11 11:40:51;;;;;;;3.90;2.90;;;28.20;98.30;;;;;;4991922;28;20513;-69
2023/10/11 11:43:20;;;;;;;6.93;3.00;;;28.30;98.50;;;;;;4992231;28;20959;-66
2023/10/11 11:45:47;;;;;;;6.07;3.23;;;28.40;98.40;;;;;;4993340;28;20462;-66
2023/10/11 11:48:14;;;;;;;6.97;2.93;;;28.40;98.20;;;;;;4994469;28;20474;-68
2023/10/11 11:50:40;;;;;;;5.43;3.00;;;28.50;98.10;;;;;;4994728;28;20486;-67
2023/10/11 11:53:07;;;;;;;5.70;2.73;;;28.60;96.20;;;;;;4986595;28;21045;-69
2023/10/11 11:55:35;;;;;;;4.00;2.53;;;28.60;95.90;;;;;;4994439;28;20687;-70
2023/10/11 11:58:02;;;;;;;4.30;2.80;;;28.60;98.00;;;;;;4986736;28;20868;-68
2023/10/11 12:00:38;;;;;;;4.93;2.80;;;28.70;96.70;;;;;;4994806;28;20489;-69
2023/10/11 12:03:06;;;;;;;3.93;2.70;;;28.70;98.60;;;;;;4993825;28;20494;-69
2023/10/11 12:05:37;;;;;;;3.73;2.23;;;28.60;95.40;;;;;;4994307;28;20466;-69
2023/10/11 12:08:05;;;;;;;4.33;2.90;;;28.60;96.80;;;;;;4986500;28;20505;-69
2023/10/11 12:10:32;;;;;;;5.87;2.57;;;28.60;97.80;;;;;;4987186;28;20465;-70
2023/10/11 12:13:05;;;;;;;4.33;2.63;;;28.90;98.50;;;;;;4987356;28;20863;-69
2023/10/11 12:15:34;;;;;;;4.20;2.90;;;29.00;97.30;;;;;;4979690;28;20469;-69
2023/10/11 12:18:05;;;;;;;4.90;2.33;;;29.00;94.90;;;;;;4986232;28;20974;-69
2023/10/11 12:20:35;;;;;;;3.83;2.50;;;29.10;96.80;;;;;;4988842;28;20851;-69
2023/10/11 12:23:08;;;;;;;4.70;2.60;;;29.10;95.10;;;;;;4983193;28;20975;-72
2023/10/11 12:25:39;;;;;;;5.10;2.57;;;29.30;96.70;;;;;;4989014;28;20470;-70
2023/10/11 12:28:08;;;;;;;3.53;2.60;;;29.40;97.10;;;;;;4992950;28;20477;-69
2023/10/11 12:30:37;;;;;;;2.93;2.23;;;29.40;96.40;;;;;;4985511;28;20563;-72
2023/10/11 12:33:08;;;;;;;5.07;2.40;;;29.40;94.40;;;;;;4992501;28;21052;-69
2023/10/11 12:35:39;;;;;;;3.87;2.17;;;29.40;94.90;;;;;;4978761;28;21006;-69
2023/10/11 12:38:07;;;;;;;5.67;2.40;;;29.30;92.90;;;;;;4985479;28;20466;-67
2023/10/11 12:40:37;;;;;;;3.00;2.70;;;29.30;95.60;;;;;;4986523;28;20554;-68
2023/10/11 12:43:07;;;;;;;4.43;2.77;;;29.20;95.40;;;;;;4985378;28;20484;-68
2023/10/11 12:45:41;;;;;;;5.60;2.50;;;29.20;94.50;;;;;;4979072;28;20467;-69
2023/10/11 12:48:10;;;;;;;3.87;2.60;;;29.20;92.40;;;;;;4992017;28;20999;-69
2023/10/11 12:50:37;;;;;;;5.07;2.83;;;29.10;91.30;;;;;;4992456;28;20482;-69
2023/10/11 12:53:10;;;;;;;3.40;2.27;;;29.10;92.80;;;;;;4985351;28;20585;-70
2023/10/11 12:55:41;;;;;;;3.43;2.80;;;29.10;94.40;;;;;;4979221;28;20495;-71
2023/10/11 12:58:12;;;;;;;3.83;2.90;;;29.10;92.90;;;;;;4992259;28;20473;-67
2023/10/11 13:00:49;;;;;;;3.33;2.93;;;29.10;92.70;;;;;;4985910;28;20517;-66
2023/10/11 13:03:18;;;;;;;5.80;2.93;;;29.10;93.70;;;;;;4985669;28;20453;-68
2023/10/11 13:05:47;;;;;;;3.40;2.50;;;29.20;93.90;;;;;;4992096;28;20458;-67
2023/10/11 13:08:15;;;;;;;3.60;2.20;;;29.30;92.40;;;;;;4992430;28;20547;-67
2023/10/11 13:10:45;;;;;;;3.20;2.20;;;29.20;93.70;;;;;;4992553;28;20482;-67
2023/10/11 13:13:14;;;;;;;4.27;2.70;;;29.30;94.30;;;;;;4982251;28;20577;-66
2023/10/11 13:15:53;;;;;;;3.50;2.70;;;29.30;94.00;;;;;;4988284;28;20552;-67
2023/10/11 13:18:21;;;;;;;3.50;2.67;;;29.30;93.60;;;;;;4989070;28;20557;-71
2023/10/11 13:20:48;;;;;;;5.07;2.80;;;29.20;91.80;;;;;;4982446;28;21077;-68
2023/10/11 13:23:15;;;;;;;3.00;2.40;;;29.00;92.10;;;;;;4992283;28;20553;-68
2023/10/11 13:25:44;;;;;;;4.03;2.47;;;28.90;93.10;;;;;;4985813;28;20463;-68
2023/10/11 13:28:17;;;;;;;4.17;2.40;;;28.90;93.50;;;;;;4983803;28;20524;-69
2023/10/11 13:30:47;;;;;;;3.60;2.30;;;28.80;92.60;;;;;;4985913;28;20498;-68
2023/10/11 13:33:16;;;;;;;2.40;2.17;;;28.80;93.00;;;;;;4991806;28;20529;-68
2023/10/11 13:35:43;;;;;;;3.20;2.50;;;28.80;93.10;;;;;;4985762;28;20885;-69
2023/10/11 13:38:17;;;;;;;3.37;2.40;;;28.70;92.00;;;;;;4983824;28;20465;-68
2023/10/11 13:40:44;;;;;;;3.67;2.33;;;28.60;93.80;;;;;;4986827;28;20478;-66
2023/10/11 13:43:12;;;;;;;2.67;2.47;;;28.60;94.00;;;;;;4991448;28;20509;-68
2023/10/11 13:45:41;;;;;;;2.37;2.17;;;28.70;93.00;;;;;;4986562;28;20553;-69
2023/10/11 13:48:14;;;;;;;2.43;2.23;;;28.70;93.00;;;;;;4985984;28;20461;-69
2023/10/11 13:50:49;;;;;;;3.30;2.40;;;28.80;93.40;;;;;;4987841;28;20509;-68
2023/10/11 13:53:20;;;;;;;3.87;2.50;;;28.70;92.50;;;;;;4978236;28;20512;-69
2023/10/11 13:55:51;;;;;;;3.87;2.50;;;28.80;92.00;;;;;;4985195;28;20522;-68
2023/10/11 13:58:19;;;;;;;3.87;2.63;;;28.80;93.80;;;;;;4986563;28;20757;-68
2023/10/11 14:01:30;;;;;;;3.30;2.43;;;28.80;93.80;;;;;;4991222;28;20528;-68
2023/10/11 14:03:54;;;;;;;4.10;2.73;;;28.80;93.50;;;;;;4985835;28;20515;-68
2023/10/11 14:06:30;;;;;;;4.53;2.70;;;28.80;92.30;;;;;;4990330;28;20910;-67
2023/10/11 14:08:59;;;;;;;7.10;2.50;;;28.80;93.10;;;;;;4988664;28;20521;-68
2023/10/11 14:11:26;;;;;;;5.10;2.87;;;28.70;93.60;;;;;;4985245;28;20885;-68
2023/10/11 14:13:53;;;;;;;4.47;2.47;;;28.70;93.80;;;;;;4988130;28;20488;-68
2023/10/11 14:16:27;;;;;;;2.83;2.17;;;28.60;93.60;;;;;;4984378;28;20977;-68
2023/10/11 14:19:05;;;;;;;4.80;2.23;;;28.50;92.10;;;;;;4991272;28;20911;-68
2023/10/11 14:21:36;;;;;;;3.60;2.40;;;28.30;92.50;;;;;;4981393;28;20482;-68
2023/10/11 14:24:06;;;;;;;2.60;2.40;;;28.20;92.50;;;;;;4983975;28;20459;-68
2023/10/11 14:26:33;;;;;;;3.10;2.23;;;28.20;92.70;;;;;;4986069;28;20525;-68
2023/10/11 14:29:00;;;;;;;2.97;2.63;;;28.20;92.20;;;;;;4985357;28;21012;-68
2023/10/11 14:31:28;;;;;;;3.90;2.30;;;28.10;91.80;;;;;;4986646;28;20926;-68
2023/10/11 14:33:57;;;;;;;2.90;2.53;;;28.10;92.20;;;;;;4990814;28;20541;-68
2023/10/11 14:36:25;;;;;;;2.90;2.60;;;28.10;92.10;;;;;;4985897;28;20466;-68
2023/10/11 14:38:52;;;;;;;5.03;2.67;;;28.10;92.40;;;;;;4991053;28;20466;-68
2023/10/11 14:41:23;;;;;;;2.23;2.03;;;28.10;94.00;;;;;;4987215;28;20830;-68
2023/10/11 14:43:51;;;;;;;4.97;2.83;;;28.00;92.60;;;;;;4984910;28;20495;-67
2023/10/11 14:46:19;;;;;;;4.53;2.30;;;28.00;93.60;;;;;;4986690;28;20470;-70
2023/10/11 14:48:48;;;;;;;4.80;2.47;;;28.00;93.40;;;;;;4990955;28;20474;-70
2023/10/11 14:51:19;;;;;;;4.27;2.70;;;27.90;91.80;;;;;;4985576;28;20494;-68
2023/10/11 14:53:48;;;;;;;3.13;2.60;;;27.70;92.40;;;;;;4988130;28;20496;-68
2023/10/11 14:56:15;;;;;;;3.30;2.70;;;27.70;93.80;;;;;;4987243;28;20477;-68
2023/10/11 14:58:44;;;;;;;3.47;2.57;;;27.60;93.50;;;;;;4990587;28;20473;-70
2023/10/11 15:01:13;;;;;;;5.00;3.10;;;27.50;94.20;;;;;;4980163;28;20983;-67
2023/10/11 15:03:40;;;;;;;3.20;2.43;;;27.50;92.90;;;;;;4991167;28;20458;-67
2023/10/11 15:06:08;;;;;;;5.63;2.90;;;27.50;94.90;;;;;;4987410;28;20463;-69
2023/10/11 15:08:38;;;;;;;2.60;2.17;;;27.40;94.50;;;;;;4991114;28;20899;-69
2023/10/11 15:11:05;;;;;;;4.33;2.50;;;27.30;93.40;;;;;;4989840;28;20482;-68
2023/10/11 15:13:33;;;;;;;3.27;2.20;;;27.20;93.70;;;;;;4986598;28;20490;-68
2023/10/11 15:16:01;;;;;;;8.97;2.70;;;27.00;94.00;;;;;;4992796;28;20470;-68
2023/10/11 15:18:28;;;;;;;3.87;2.57;;;26.90;93.70;;;;;;4989171;28;20466;-68
2023/10/11 15:20:54;;;;;;;2.30;2.10;;;26.80;93.90;;;;;;4991139;28;21035;-68
2023/10/11 15:23:21;;;;;;;3.27;2.50;;;26.80;95.10;;;;;;4994552;28;20473;-68
2023/10/11 15:25:49;;;;;;;3.30;2.87;;;26.70;94.90;;;;;;4987055;28;20478;-68
2023/10/11 15:28:17;;;;;;;3.03;2.30;;;26.50;94.20;;;;;;4994538;28;20501;-68
2023/10/11 15:30:44;;;;;;;3.53;2.73;;;26.50;94.30;;;;;;4986538;28;20485;-66
2023/10/11 15:33:12;;;;;;;7.50;2.60;;;26.30;93.40;;;;;;4989292;28;20462;-68
2023/10/11 15:35:39;;;;;;;3.17;2.20;;;26.30;94.10;;;;;;4989184;28;20466;-68
2023/10/11 15:38:06;;;;;;;3.07;2.27;;;26.10;94.40;;;;;;4994159;28;20474;-70
2023/10/11 15:40:33;;;;;;;3.23;2.23;;;26.00;94.30;;;;;;4994139;28;20480;-67
2023/10/11 15:43:01;;;;;;;3.60;2.60;;;25.70;94.50;;;;;;4987653;28;20467;-67
2023/10/11 15:45:28;;;;;;;7.17;2.93;;;25.60;94.80;;;;;;4993622;28;20478;-70
2023/10/11 15:47:54;;;;;;;3.37;2.30;;;25.40;95.10;;;;;;4990946;28;20475;-68
2023/10/11 15:50:22;;;;;;;5.43;2.60;;;25.20;95.00;;;;;;4992671;28;20470;-68
2023/10/11 15:52:51;;;;;;;3.60;2.63;;;25.10;95.10;;;;;;4988603;28;20462;-68
2023/10/11 15:55:22;;;;;;;2.73;2.10;;;24.90;95.50;;;;;;4993325;28;20490;-70
2023/10/11 15:57:49;;;;;;;2.17;1.97;;;24.70;95.00;;;;;;4988837;28;20635;-68
2023/10/11 16:00:19;;;;;;;4.07;2.60;;;24.60;95.30;;;;;;4993678;28;20477;-67
2023/10/11 16:02:46;;;;;;;2.50;2.10;;;24.40;95.80;;;;;;4989791;28;20472;-68
2023/10/11 16:05:15;;;;;;;2.70;2.10;;;24.30;95.10;;;;;;4982829;28;20462;-66
2023/10/11 16:07:42;;;;;;;3.73;2.40;;;24.20;95.40;;;;;;4990060;28;20462;-67
2023/10/11 16:10:10;;;;;;;3.73;2.47;;;24.10;96.00;;;;;;4985731;28;20458;-67
2023/10/11 16:12:37;;;;;;;3.57;2.60;;;24.00;97.00;;;;;;4988649;28;20477;-68
2023/10/11 16:15:09;;;;;;;3.60;2.50;;;23.90;97.50;;;;;;4993468;28;20497;-68
2023/10/11 16:17:38;;;;;;;4.30;2.70;;;23.80;98.60;;;;;;4985120;28;20972;-68
2023/10/11 16:20:07;;;;;;;3.60;2.40;;;23.60;97.90;;;;;;4984174;28;20474;-68
2023/10/11 16:22:37;;;;;;;4.10;2.60;;;23.40;99.20;;;;;;4982667;28;20494;-67
2023/10/11 16:25:07;;;;;;;3.30;3.00;;;23.20;99.90;;;;;;4993643;28;20474;-68
2023/10/11 16:27:36;;;;;;;3.20;2.43;;;23.00;99.90;;;;;;4992266;28;21273;-69
2023/10/11 16:30:06;;;;;;;2.37;1.80;;;22.80;99.90;;;;;;4993448;28;20899;-68
2023/10/11 16:32:34;;;;;;;3.93;3.13;;;22.60;99.90;;;;;;4988233;28;20995;-69
2023/10/11 16:35:07;;;;;;;4.27;2.70;;;22.40;99.90;;;;;;4992658;28;20490;-68
2023/10/11 16:37:36;;;;;;;5.37;2.57;;;22.20;99.90;;;;;;4983589;28;20477;-67
2023/10/11 16:40:04;;;;;;;2.67;2.37;;;21.90;99.90;;;;;;4988507;28;20525;-67
2023/10/11 16:42:33;;;;;;;4.23;3.07;;;21.70;99.90;;;;;;4981522;28;20470;-67
2023/10/11 16:45:05;;;;;;;4.00;2.90;;;21.50;99.90;;;;;;4988796;28;20458;-70
2023/10/11 16:47:36;;;;;;;4.00;2.93;;;21.30;99.90;;;;;;4990616;28;20553;-69
2023/10/11 16:50:08;;;;;;;3.17;2.63;;;21.10;99.90;;;;;;4991948;28;20502;-69
2023/10/11 16:52:34;;;;;;;4.00;2.50;;;21.00;99.90;;;;;;4984332;28;20490;-68
2023/10/11 16:55:01;;;;;;;3.70;2.60;;;20.70;99.90;;;;;;4988911;28;20863;-68
2023/10/11 16:57:28;;;;;;;3.70;2.40;;;20.50;99.90;;;;;;4987667;28;20479;-68
2023/10/11 16:59:55;;;;;;;7.50;2.40;;;20.30;99.90;;;;;;4987735;28;20462;-68
2023/10/11 17:02:25;;;;;;;5.83;3.30;;;20.20;99.90;;;;;;4987806;28;20491;-68
2023/10/11 17:04:54;;;;;;;3.20;2.90;;;20.10;99.90;;;;;;4986547;28;20469;-68